Time;durP1;ratioP1;P1;durP2;ratioP2;P2;SDS_P1;SDS_P2;PMS_P1;PMS_P2;Temp;Humidity;BMP_temperature;BMP_pressure;BME280_temperature;BME280_humidity;BME280_pressure;Samples;Min_cycle;Max_cycle;Signal;HPM_P1;HPM_P2
2022/12/03 00:02:12;;;;;;;;;;;;;;;8.58;79.86;101963.00;7383580;19;19978;-88
2022/12/03 00:05:28;;;;;;;;;;;;;;;8.53;80.29;101966.94;7384539;19;19927;-87
2022/12/03 00:08:26;;;;;;;;;;;;;;;8.56;78.92;101970.16;7379806;19;19952;-89
2022/12/03 00:11:00;;;;;;;;;;;;;;;8.57;79.12;101971.00;7386406;19;21713;-88
2022/12/03 00:13:27;;;;;;;;;;;;;;;8.58;79.11;101970.06;7384992;19;20371;-87
2022/12/03 00:15:55;;;;;;;;;;;;;;;8.60;79.87;101970.78;7389679;19;19923;-88
2022/12/03 00:21:54;;;;;;;;;;;;;;;8.63;78.89;101965.31;7391034;19;20345;-88
2022/12/03 00:27:45;;;;;;;;;;;;;;;8.62;77.73;101962.81;7389502;19;20622;-88
2022/12/03 00:30:15;;;;;;;;;;;;;;;8.53;76.78;101964.31;7390373;19;20538;-88
2022/12/03 00:32:42;;;;;;;;;;;;;;;8.48;77.54;101955.94;7390323;19;19948;-89
2022/12/03 00:35:13;;;;;;;;;;;;;;;8.43;78.86;101955.44;7390763;19;19924;-89
2022/12/03 00:37:51;;;;;;;;;;;;;;;8.41;79.13;101960.78;7389566;19;20338;-88
2022/12/03 00:40:24;;;;;;;;;;;;;;;8.41;78.98;101966.03;7387826;19;19921;-88
2022/12/03 00:43:25;;;;;;;;;;;;;;;8.47;78.36;101954.28;7389496;19;19926;-88
2022/12/03 00:46:29;;;;;;;;;;;;;;;8.49;77.78;101966.31;7387759;19;19927;-88
2022/12/03 00:49:07;;;;;;;;;;;;;;;8.46;78.19;101957.84;7391266;19;19928;-88
2022/12/03 00:51:35;;;;;;;;;;;;;;;8.43;78.13;101948.38;7389169;19;19935;-87
2022/12/03 00:54:02;;;;;;;;;;;;;;;8.37;77.98;101959.34;7390597;19;20513;-87
2022/12/03 00:59:50;;;;;;;;;;;;;;;8.30;79.28;101952.00;7393150;19;19911;-88
2022/12/03 01:02:30;;;;;;;;;;;;;;;8.32;79.32;101944.88;7388453;19;19923;-87
2022/12/03 01:05:14;;;;;;;;;;;;;;;8.31;79.35;101954.53;7391749;19;19915;-88
2022/12/03 01:07:47;;;;;;;;;;;;;;;8.35;78.95;101955.13;7393923;19;19954;-88
2022/12/03 01:10:33;;;;;;;;;;;;;;;8.33;79.43;101957.06;7393060;19;19915;-88
2022/12/03 01:13:06;;;;;;;;;;;;;;;8.31;77.95;101949.28;7393048;19;19923;-86
2022/12/03 01:15:43;;;;;;;;;;;;;;;8.31;77.70;101946.66;7396107;19;19929;-88
2022/12/03 01:18:21;;;;;;;;;;;;;;;8.26;78.46;101943.50;7393808;19;19918;-87
2022/12/03 01:24:15;;;;;;;;;;;;;;;8.28;77.89;101943.41;7394800;19;19939;-88
2022/12/03 01:26:59;;;;;;;;;;;;;;;8.22;77.66;101949.09;7388439;19;19930;-88
2022/12/03 01:29:31;;;;;;;;;;;;;;;8.23;77.75;101948.94;7391790;19;20243;-87
2022/12/03 01:34:31;;;;;;;;;;;;;;;8.25;77.47;101957.56;7384035;19;19982;-88
2022/12/03 01:37:01;;;;;;;;;;;;;;;8.27;77.49;101960.91;7385509;19;19918;-87
2022/12/03 01:39:28;;;;;;;;;;;;;;;8.28;76.75;101959.94;7385022;19;19990;-89
2022/12/03 01:41:57;;;;;;;;;;;;;;;8.29;77.26;101968.66;7384612;19;19923;-89
2022/12/03 01:44:26;;;;;;;;;;;;;;;8.29;77.74;101964.25;7401217;19;19922;-88
2022/12/03 01:47:00;;;;;;;;;;;;;;;8.27;77.63;101960.06;7406639;19;19940;-89
2022/12/03 01:59:29;;;;;;;;;;;;;;;8.21;76.02;101948.25;7402956;19;19911;-88
2022/12/03 02:01:57;;;;;;;;;;;;;;;8.19;76.86;101958.00;7397069;19;19915;-88
2022/12/03 02:04:24;;;;;;;;;;;;;;;8.19;76.55;101950.13;7397717;19;20300;-88
2022/12/03 02:06:54;;;;;;;;;;;;;;;8.19;77.16;101950.13;7398265;19;19926;-88
2022/12/03 02:09:25;;;;;;;;;;;;;;;8.15;75.50;101954.75;7401593;19;20547;-87
2022/12/03 02:11:52;;;;;;;;;;;;;;;8.18;75.53;101953.69;7401693;19;20961;-88
2022/12/03 02:14:22;;;;;;;;;;;;;;;8.15;76.14;101949.50;7395692;19;19930;-87
2022/12/03 02:16:49;;;;;;;;;;;;;;;8.14;75.77;101953.06;7399540;19;19923;-87
2022/12/03 02:19:25;;;;;;;;;;;;;;;8.18;75.77;101945.81;7394755;19;19955;-86
2022/12/03 02:21:58;;;;;;;;;;;;;;;8.18;75.56;101946.66;7407082;19;21225;-88
2022/12/03 02:27:47;;;;;;;;;;;;;;;8.14;76.15;101944.38;7402381;19;19915;-87
2022/12/03 02:30:34;;;;;;;;;;;;;;;8.11;76.02;101927.09;7403650;19;19919;-88
2022/12/03 02:33:23;;;;;;;;;;;;;;;8.15;75.19;101928.53;7397472;19;21259;-87
2022/12/03 02:36:00;;;;;;;;;;;;;;;8.21;74.00;101939.53;7405749;19;19914;-87
2022/12/03 02:38:44;;;;;;;;;;;;;;;8.21;73.80;101929.06;7407523;19;20354;-88
2022/12/03 02:44:10;;;;;;;;;;;;;;;8.20;74.51;101930.00;7405385;19;19918;-88
2022/12/03 02:46:46;;;;;;;;;;;;;;;8.17;74.35;101931.06;7401932;19;19919;-89
2022/12/03 02:49:20;;;;;;;;;;;;;;;8.24;73.65;101928.81;7402226;19;19918;-89
2022/12/03 02:51:53;;;;;;;;;;;;;;;8.21;73.49;101929.06;7401827;19;19923;-87
2022/12/03 02:54:25;;;;;;;;;;;;;;;8.22;73.82;101926.34;7399238;19;19934;-89
2022/12/03 02:57:15;;;;;;;;;;;;;;;8.22;73.21;101921.09;7408404;19;19931;-88
2022/12/03 02:59:45;;;;;;;;;;;;;;;8.24;72.70;101918.34;7390996;19;20332;-88
2022/12/03 03:02:27;;;;;;;;;;;;;;;8.19;72.92;101926.53;7392822;19;19918;-88
2022/12/03 03:05:13;;;;;;;;;;;;;;;8.18;73.30;101917.81;7385187;19;19923;-87
2022/12/03 03:07:41;;;;;;;;;;;;;;;8.12;72.46;101920.06;7390227;19;19962;-89
2022/12/03 03:10:14;;;;;;;;;;;;;;;8.11;72.65;101914.00;7391268;19;19943;-88
2022/12/03 03:12:46;;;;;;;;;;;;;;;8.11;72.88;101911.38;7395018;19;19915;-88
2022/12/03 03:18:35;;;;;;;;;;;;;;;8.10;72.19;101903.59;7393973;19;19940;-89
2022/12/03 03:21:05;;;;;;;;;;;;;;;8.09;71.13;101910.63;7392682;19;19918;-87
2022/12/03 03:23:35;;;;;;;;;;;;;;;8.07;72.00;101903.84;7393075;19;19939;-87
2022/12/03 03:26:06;;;;;;;;;;;;;;;8.09;72.87;101908.00;7390135;19;19963;-87
2022/12/03 03:28:37;;;;;;;;;;;;;;;8.11;72.53;101908.75;7388072;19;21200;-87
2022/12/03 03:31:11;;;;;;;;;;;;;;;8.12;72.10;101902.56;7393127;19;19925;-87
2022/12/03 03:33:40;;;;;;;;;;;;;;;8.12;72.32;101899.94;7395428;19;19922;-87
2022/12/03 03:36:12;;;;;;;;;;;;;;;8.13;71.71;101898.13;7395361;19;19958;-88
2022/12/03 03:38:41;;;;;;;;;;;;;;;8.15;72.29;101901.50;7394017;19;20022;-88
2022/12/03 03:41:11;;;;;;;;;;;;;;;8.22;71.08;101891.41;7395691;19;20335;-88
2022/12/03 03:43:42;;;;;;;;;;;;;;;8.17;71.38;101897.00;7397819;19;19959;-88
2022/12/03 03:46:22;;;;;;;;;;;;;;;8.13;70.81;101898.13;7394948;19;19926;-87
2022/12/03 03:49:04;;;;;;;;;;;;;;;8.10;71.72;101887.88;7395261;19;19911;-88
2022/12/03 03:51:35;;;;;;;;;;;;;;;8.09;70.95;101891.44;7397930;19;19949;-88
2022/12/03 03:54:16;;;;;;;;;;;;;;;8.09;71.05;101887.03;7393621;19;19914;-87
2022/12/03 03:56:47;;;;;;;;;;;;;;;8.08;71.57;101887.97;7397622;19;19933;-87
2022/12/03 03:59:28;;;;;;;;;;;;;;;8.07;72.19;101894.19;7390130;19;19910;-88
2022/12/03 04:02:01;;;;;;;;;;;;;;;8.11;72.03;101906.13;7384939;19;19915;-88
2022/12/03 04:04:32;;;;;;;;;;;;;;;8.15;72.28;101891.00;7388158;19;20326;-90
2022/12/03 04:06:59;;;;;;;;;;;;;;;8.16;71.49;101895.31;7386375;19;19919;-89
2022/12/03 04:09:27;;;;;;;;;;;;;;;8.18;71.81;101886.38;7384560;19;19972;-88
2022/12/03 04:14:24;;;;;;;;;;;;;;;8.15;70.71;101891.00;7388548;19;19958;-87
2022/12/03 04:16:51;;;;;;;;;;;;;;;8.08;71.07;101895.00;7390261;19;19933;-88
2022/12/03 04:19:18;;;;;;;;;;;;;;;8.06;71.06;101882.03;7390143;19;19922;-87
2022/12/03 04:24:16;;;;;;;;;;;;;;;7.99;71.39;101885.19;7392036;19;19944;-87
2022/12/03 04:29:16;;;;;;;;;;;;;;;7.92;71.86;101879.56;7386874;19;20199;-88
2022/12/03 04:36:43;;;;;;;;;;;;;;;7.95;71.98;101875.88;7388165;19;19919;-87
2022/12/03 04:39:11;;;;;;;;;;;;;;;7.93;72.34;101878.59;7387152;19;19926;-88
2022/12/03 04:41:41;;;;;;;;;;;;;;;7.96;73.19;101867.09;7386203;19;19991;-87
2022/12/03 04:46:38;;;;;;;;;;;;;;;8.06;71.86;101858.44;7386932;19;19919;-88
2022/12/03 04:49:05;;;;;;;;;;;;;;;8.05;72.39;101871.66;7386172;19;19943;-88
2022/12/03 04:51:36;;;;;;;;;;;;;;;8.02;71.73;101862.25;7387404;19;19937;-88
2022/12/03 04:54:03;;;;;;;;;;;;;;;7.97;72.02;101859.13;7388318;19;19932;-88
2022/12/03 04:56:33;;;;;;;;;;;;;;;7.89;72.56;101863.22;7387697;19;19927;-88
2022/12/03 04:59:00;;;;;;;;;;;;;;;7.88;72.88;101861.53;7386772;19;19947;-88
2022/12/03 05:01:27;;;;;;;;;;;;;;;7.78;72.74;101863.97;7388606;19;19915;-88
2022/12/03 05:03:54;;;;;;;;;;;;;;;7.79;73.33;101865.66;7387441;19;19923;-87
2022/12/03 05:06:22;;;;;;;;;;;;;;;7.81;73.45;101863.78;7388708;19;21030;-87
2022/12/03 05:08:54;;;;;;;;;;;;;;;7.76;73.51;101859.81;7386021;19;19919;-87
2022/12/03 05:11:21;;;;;;;;;;;;;;;7.76;73.96;101858.03;7384980;19;19947;-89
2022/12/03 05:13:51;;;;;;;;;;;;;;;7.76;73.89;101851.94;7384796;19;20549;-89
2022/12/03 05:16:21;;;;;;;;;;;;;;;7.80;73.95;101858.63;7385748;19;19915;-87
2022/12/03 05:18:48;;;;;;;;;;;;;;;7.82;73.59;101841.03;7385569;19;20532;-87
2022/12/03 05:21:15;;;;;;;;;;;;;;;7.83;74.56;101851.38;7385931;19;20244;-89
2022/12/03 05:23:43;;;;;;;;;;;;;;;7.85;74.88;101854.75;7385665;19;19923;-87
2022/12/03 05:26:10;;;;;;;;;;;;;;;7.88;74.67;101851.06;7388825;19;19934;-88
2022/12/03 05:28:37;;;;;;;;;;;;;;;7.91;73.72;101843.00;7388696;19;19983;-89
2022/12/03 05:31:04;;;;;;;;;;;;;;;7.93;73.51;101847.16;7388980;19;20488;-88
2022/12/03 05:33:34;;;;;;;;;;;;;;;7.91;73.45;101849.06;7385499;19;19923;-89
2022/12/03 05:36:09;;;;;;;;;;;;;;;7.88;73.69;101846.66;7389563;19;19915;-87
2022/12/03 05:38:36;;;;;;;;;;;;;;;7.85;73.29;101844.28;7387410;19;19922;-88
2022/12/03 05:44:23;;;;;;;;;;;;;;;7.81;74.22;101837.59;7385588;19;20377;-88
2022/12/03 05:46:51;;;;;;;;;;;;;;;7.83;74.44;101838.28;7378064;19;19918;-88
2022/12/03 05:49:18;;;;;;;;;;;;;;;7.77;74.08;101832.66;7381428;19;19919;-89
2022/12/03 05:51:45;;;;;;;;;;;;;;;7.72;74.62;101820.72;7382025;19;20354;-88
2022/12/03 05:54:12;;;;;;;;;;;;;;;7.76;74.09;101825.75;7384547;19;19933;-87
2022/12/03 05:56:41;;;;;;;;;;;;;;;7.79;74.26;101817.66;7381812;19;20019;-87
2022/12/03 05:59:08;;;;;;;;;;;;;;;7.80;74.37;101820.19;7387437;19;20115;-89
2022/12/03 06:01:38;;;;;;;;;;;;;;;7.88;74.11;101814.38;7388589;19;19925;-86
2022/12/03 06:04:05;;;;;;;;;;;;;;;7.89;74.66;101824.75;7389067;19;19925;-89
2022/12/03 06:06:32;;;;;;;;;;;;;;;7.87;75.02;101816.19;7388418;19;19983;-88
2022/12/03 06:08:59;;;;;;;;;;;;;;;7.87;74.91;101820.59;7386579;19;19939;-88
2022/12/03 06:11:32;;;;;;;;;;;;;;;7.87;74.76;101800.47;7387218;19;19918;-87
2022/12/03 06:14:00;;;;;;;;;;;;;;;7.87;75.29;101810.09;7380056;19;20026;-87
2022/12/03 06:16:27;;;;;;;;;;;;;;;7.86;76.11;101805.81;7383251;19;19923;-88
2022/12/03 06:18:54;;;;;;;;;;;;;;;7.85;77.31;101799.72;7383912;19;19918;-89
2022/12/03 06:21:21;;;;;;;;;;;;;;;7.88;76.54;101804.72;7383650;19;19918;-87
2022/12/03 06:23:51;;;;;;;;;;;;;;;7.92;77.06;101800.13;7384319;19;19930;-87
2022/12/03 06:26:21;;;;;;;;;;;;;;;7.92;76.35;101811.44;7383554;19;19957;-86
2022/12/03 06:28:49;;;;;;;;;;;;;;;7.88;76.69;101798.66;7383067;19;20333;-89
2022/12/03 06:31:16;;;;;;;;;;;;;;;7.89;77.15;101803.78;7387819;19;20007;-89
2022/12/03 06:33:43;;;;;;;;;;;;;;;7.87;77.28;101808.31;7384945;19;21663;-88
2022/12/03 06:36:13;;;;;;;;;;;;;;;7.89;76.21;101800.34;7387469;19;19929;-87
2022/12/03 06:38:47;;;;;;;;;;;;;;;7.90;76.74;101807.25;7387375;19;19978;-87
2022/12/03 06:41:16;;;;;;;;;;;;;;;7.91;78.04;101801.06;7386330;19;19929;-88
2022/12/03 06:43:44;;;;;;;;;;;;;;;7.90;77.50;101792.38;7386045;19;20441;-87
2022/12/03 06:46:12;;;;;;;;;;;;;;;7.87;77.30;101787.38;7380626;19;19923;-88
2022/12/03 06:48:39;;;;;;;;;;;;;;;7.89;76.84;101789.84;7381766;19;19947;-89
2022/12/03 06:51:06;;;;;;;;;;;;;;;7.88;77.62;101791.63;7381120;19;19963;-88
2022/12/03 06:53:34;;;;;;;;;;;;;;;7.89;77.66;101785.44;7380296;19;19911;-88
2022/12/03 06:56:01;;;;;;;;;;;;;;;7.92;77.37;101787.03;7379816;19;19918;-88
2022/12/03 06:58:32;;;;;;;;;;;;;;;7.88;77.56;101789.00;7383075;19;20286;-89
2022/12/03 07:00:59;;;;;;;;;;;;;;;7.90;77.38;101784.50;7388759;19;19923;-88
2022/12/03 07:03:27;;;;;;;;;;;;;;;7.91;77.34;101782.72;7388456;19;19926;-88
2022/12/03 07:05:57;;;;;;;;;;;;;;;7.90;77.06;101778.44;7396543;19;19943;-88
2022/12/03 07:08:24;;;;;;;;;;;;;;;7.94;76.82;101774.63;7391012;19;19915;-87
2022/12/03 07:10:51;;;;;;;;;;;;;;;7.96;76.72;101773.59;7395432;19;19927;-87
2022/12/03 07:13:19;;;;;;;;;;;;;;;7.97;78.32;101771.81;7390273;19;19919;-88
2022/12/03 07:15:46;;;;;;;;;;;;;;;7.99;77.09;101770.72;7386581;19;19934;-88
2022/12/03 07:18:13;;;;;;;;;;;;;;;7.99;77.21;101775.13;7388833;19;19919;-87
2022/12/03 07:20:40;;;;;;;;;;;;;;;8.01;77.45;101779.31;7389226;19;19922;-88
2022/12/03 07:23:07;;;;;;;;;;;;;;;8.01;77.37;101779.31;7388880;19;19939;-87
2022/12/03 07:32:11;;;;;;;;;;;;;;;7.96;78.51;101775.38;7393229;19;20268;-87
2022/12/03 07:34:38;;;;;;;;;;;;;;;7.92;78.99;101763.44;7390928;19;20309;-88
2022/12/03 07:37:05;;;;;;;;;;;;;;;7.91;79.65;101767.84;7393564;19;19943;-89
2022/12/03 07:39:32;;;;;;;;;;;;;;;7.93;80.12;101763.31;7391362;19;19949;-88
2022/12/03 07:42:02;;;;;;;;;;;;;;;7.91;79.88;101752.13;7394411;19;19927;-88
2022/12/03 07:44:30;;;;;;;;;;;;;;;7.90;80.01;101754.84;7389075;19;19934;-88
2022/12/03 07:46:58;;;;;;;;;;;;;;;7.93;79.36;101760.69;7382814;19;20383;-88
2022/12/03 07:49:25;;;;;;;;;;;;;;;7.92;79.25;101763.44;7387435;19;19919;-88
2022/12/03 07:51:53;;;;;;;;;;;;;;;7.92;78.97;101758.22;7385801;19;19923;-88
2022/12/03 07:54:23;;;;;;;;;;;;;;;7.91;79.13;101756.53;7389070;19;20337;-88
2022/12/03 07:56:51;;;;;;;;;;;;;;;7.95;79.30;101758.81;7388387;19;19911;-88
2022/12/03 07:59:26;;;;;;;;;;;;;;;7.92;80.02;101764.28;7394767;19;19922;-87
2022/12/03 08:01:54;;;;;;;;;;;;;;;7.92;80.05;101761.66;7392598;19;20269;-89
2022/12/03 08:04:21;;;;;;;;;;;;;;;7.92;80.30;101761.66;7391737;19;19933;-87
2022/12/03 08:06:58;;;;;;;;;;;;;;;7.95;80.69;101761.44;7390304;19;19918;-89
2022/12/03 08:09:25;;;;;;;;;;;;;;;8.01;80.01;101757.53;7389528;19;19919;-88
2022/12/03 08:11:52;;;;;;;;;;;;;;;8.04;80.46;101750.25;7392880;19;19927;-88
2022/12/03 08:14:23;;;;;;;;;;;;;;;8.03;80.58;101745.13;7388398;19;19919;-87
2022/12/03 08:16:50;;;;;;;;;;;;;;;8.03;79.92;101740.72;7384069;19;20504;-87
2022/12/03 08:19:21;;;;;;;;;;;;;;;8.05;80.45;101741.47;7385772;19;19927;-89
2022/12/03 08:21:48;;;;;;;;;;;;;;;8.08;79.47;101733.34;7385700;19;20261;-88
2022/12/03 08:24:19;;;;;;;;;;;;;;;8.05;79.67;101733.59;7387162;19;19953;-88
2022/12/03 08:26:48;;;;;;;;;;;;;;;8.02;80.65;101733.84;7387360;19;19919;-88
2022/12/03 08:29:17;;;;;;;;;;;;;;;8.04;80.70;101734.53;7387733;19;20325;-89
2022/12/03 08:31:47;;;;;;;;;;;;;;;8.11;80.01;101721.81;7391190;19;20400;-87
2022/12/03 08:34:17;;;;;;;;;;;;;;;8.12;80.73;101726.97;7391664;19;19919;-88
2022/12/03 08:39:51;;;;;;;;;;;;;;;8.23;79.75;101723.50;7392676;19;19910;-87
2022/12/03 08:44:53;;;;;;;;;;;;;;;8.19;80.56;101719.44;7393628;19;19934;-88
2022/12/03 08:54:03;;;;;;;;;;;;;;;8.32;80.97;101703.69;7395957;19;19962;-88
2022/12/03 08:59:54;;;;;;;;;;;;;;;8.44;80.78;101703.56;7388443;19;19923;-88
2022/12/03 09:02:26;;;;;;;;;;;;;;;8.47;80.74;101708.59;7385718;19;20298;-88
2022/12/03 09:04:53;;;;;;;;;;;;;;;8.46;81.20;101709.53;7387188;19;19938;-88
2022/12/03 09:07:21;;;;;;;;;;;;;;;8.50;80.45;101705.72;7384870;19;19919;-87
2022/12/03 09:09:48;;;;;;;;;;;;;;;8.48;81.11;101702.38;7387595;19;20346;-88
2022/12/03 09:12:16;;;;;;;;;;;;;;;8.47;80.93;101705.13;7386953;19;20415;-89
2022/12/03 09:14:43;;;;;;;;;;;;;;;8.44;81.88;101705.34;7393774;19;20329;-88
2022/12/03 09:17:10;;;;;;;;;;;;;;;8.45;81.00;101701.78;7389281;19;19915;-88
2022/12/03 09:19:43;;;;;;;;;;;;;;;8.41;81.01;101702.97;7390722;19;19911;-88
2022/12/03 09:22:12;;;;;;;;;;;;;;;8.40;81.70;101703.91;7388476;19;20523;-88
2022/12/03 09:24:39;;;;;;;;;;;;;;;8.39;82.39;101705.69;7388344;19;19928;-88
2022/12/03 09:27:06;;;;;;;;;;;;;;;8.40;82.60;101706.53;7387472;19;19918;-88
2022/12/03 09:29:34;;;;;;;;;;;;;;;8.43;82.96;101703.69;7386011;19;19927;-88
2022/12/03 09:32:01;;;;;;;;;;;;;;;8.46;82.14;101706.06;7391548;19;20157;-87
2022/12/03 09:34:28;;;;;;;;;;;;;;;8.48;82.18;101702.38;7384479;19;19915;-87
2022/12/03 09:36:55;;;;;;;;;;;;;;;8.50;82.21;101695.22;7384856;19;20311;-88
2022/12/03 09:39:23;;;;;;;;;;;;;;;8.54;83.38;101694.03;7383369;19;20462;-87
2022/12/03 09:41:51;;;;;;;;;;;;;;;8.55;83.17;101700.13;7384299;19;19907;-86
2022/12/03 09:44:18;;;;;;;;;;;;;;;8.53;81.98;101696.81;7385862;19;20345;-89
2022/12/03 09:46:46;;;;;;;;;;;;;;;8.53;82.28;101696.81;7382421;19;19922;-87
2022/12/03 09:49:15;;;;;;;;;;;;;;;8.53;82.17;101696.81;7381892;19;21750;-88
2022/12/03 09:51:44;;;;;;;;;;;;;;;8.49;83.47;101698.81;7383267;19;19922;-88
2022/12/03 09:54:19;;;;;;;;;;;;;;;8.47;83.49;101695.47;7383384;19;20356;-88
2022/12/03 09:56:52;;;;;;;;;;;;;;;8.55;83.35;101685.22;7401137;19;19919;-88
2022/12/03 09:59:20;;;;;;;;;;;;;;;8.54;83.87;101683.53;7357358;19;20116;-87
2022/12/03 10:01:48;;;;;;;;;;;;;;;8.55;83.93;101690.47;7383881;19;19922;-87
2022/12/03 10:04:18;;;;;;;;;;;;;;;8.61;84.65;101678.66;7389399;19;19915;-89
2022/12/03 10:07:08;;;;;;;;;;;;;;;8.70;85.15;101674.47;7384860;19;19952;-89
2022/12/03 10:09:42;;;;;;;;;;;;;;;8.74;84.40;101674.13;7387787;19;19914;-88
2022/12/03 10:12:10;;;;;;;;;;;;;;;8.82;83.14;101663.88;7388230;19;19923;-86
2022/12/03 10:14:38;;;;;;;;;;;;;;;8.90;82.12;101676.38;7385455;19;19957;-88
2022/12/03 10:17:05;;;;;;;;;;;;;;;8.93;81.86;101668.28;7384313;19;19914;-88
2022/12/03 10:19:34;;;;;;;;;;;;;;;8.94;82.81;101669.94;7384687;19;19918;-88
2022/12/03 10:22:03;;;;;;;;;;;;;;;8.93;82.03;101665.66;7382224;19;19915;-89
2022/12/03 10:24:32;;;;;;;;;;;;;;;8.91;82.49;101664.94;7385597;19;19918;-88
2022/12/03 10:27:00;;;;;;;;;;;;;;;8.93;83.40;101656.00;7385944;19;19975;-88
2022/12/03 10:29:32;;;;;;;;;;;;;;;9.01;82.71;101656.22;7387129;19;19915;-87
2022/12/03 10:32:02;;;;;;;;;;;;;;;9.05;82.36;101663.84;7387926;19;21566;-88
2022/12/03 10:41:11;;;;;;;;;;;;;;;8.96;82.97;101652.28;7415237;19;19918;-88
2022/12/03 10:43:38;;;;;;;;;;;;;;;9.00;82.04;101641.41;7392166;19;19921;-88
2022/12/03 10:46:08;;;;;;;;;;;;;;;9.01;83.19;101634.38;7391347;19;20010;-87
2022/12/03 10:48:38;;;;;;;;;;;;;;;9.00;83.18;101630.91;7395898;19;19919;-87
2022/12/03 10:51:16;;;;;;;;;;;;;;;9.05;83.35;101630.53;7394471;19;19913;-89
2022/12/03 10:53:47;;;;;;;;;;;;;;;9.07;83.39;101625.19;7381261;19;19914;-88
2022/12/03 10:56:21;;;;;;;;;;;;;;;9.07;83.92;101630.44;7384259;19;21472;-87
2022/12/03 10:58:49;;;;;;;;;;;;;;;9.11;82.65;101631.84;7383593;19;19935;-88
2022/12/03 11:01:19;;;;;;;;;;;;;;;9.16;81.84;101616.56;7377566;19;19978;-86
2022/12/03 11:03:49;;;;;;;;;;;;;;;9.15;81.94;101623.59;7378830;19;20313;-90
2022/12/03 11:06:19;;;;;;;;;;;;;;;9.19;82.72;101624.22;7381587;19;20034;-87
2022/12/03 11:08:48;;;;;;;;;;;;;;;9.23;82.43;101612.50;7378156;19;19990;-86
2022/12/03 11:11:25;;;;;;;;;;;;;;;9.25;82.91;101611.41;7379492;19;20477;-87
2022/12/03 11:13:56;;;;;;;;;;;;;;;9.28;82.61;101608.53;7377543;19;20560;-87
2022/12/03 11:16:26;;;;;;;;;;;;;;;9.31;82.47;101596.94;7384469;19;19914;-87
2022/12/03 11:18:54;;;;;;;;;;;;;;;9.33;82.15;101593.25;7388992;19;19907;-86
2022/12/03 11:21:25;;;;;;;;;;;;;;;9.38;82.05;101592.84;7386613;19;20502;-88
2022/12/03 11:23:52;;;;;;;;;;;;;;;9.45;80.62;101580.88;7387168;19;19911;-89
2022/12/03 11:26:23;;;;;;;;;;;;;;;9.42;80.72;101576.72;7384762;19;19914;-85
2022/12/03 11:28:54;;;;;;;;;;;;;;;9.38;81.04;101572.69;7384571;19;19947;-86
2022/12/03 11:31:24;;;;;;;;;;;;;;;9.37;81.43;101567.56;7381028;19;19980;-89
2022/12/03 11:34:11;;;;;;;;;;;;;;;9.32;81.22;101580.22;7379607;19;20495;-87
2022/12/03 11:39:54;;;;;;;;;;;;;;;9.30;82.33;101566.38;7380103;19;19927;-88
2022/12/03 11:42:37;;;;;;;;;;;;;;;9.33;83.04;101566.16;7379551;19;20304;-87
2022/12/03 11:45:05;;;;;;;;;;;;;;;9.32;82.44;101557.44;7384656;19;19915;-90
2022/12/03 11:50:51;;;;;;;;;;;;;;;9.42;81.32;101542.56;7395713;19;19923;-88
2022/12/03 11:53:21;;;;;;;;;;;;;;;9.45;81.13;101537.06;7397560;19;20388;-88
2022/12/03 11:55:58;;;;;;;;;;;;;;;9.50;81.46;101533.22;7400540;19;20353;-89
2022/12/03 11:58:34;;;;;;;;;;;;;;;9.57;81.04;101521.22;7399961;19;19927;-89
2022/12/03 12:01:02;;;;;;;;;;;;;;;9.59;81.87;101514.06;7396480;19;19947;-88
2022/12/03 12:03:31;;;;;;;;;;;;;;;9.66;81.64;101521.28;7394375;19;19947;-90
2022/12/03 12:06:03;;;;;;;;;;;;;;;9.72;79.73;101520.78;7397016;19;20266;-90
2022/12/03 12:08:31;;;;;;;;;;;;;;;9.74;79.82;101521.50;7396442;19;19939;-88
2022/12/03 12:10:59;;;;;;;;;;;;;;;9.75;79.77;101525.75;7397054;19;19954;-88
2022/12/03 12:13:26;;;;;;;;;;;;;;;9.78;80.11;101514.16;7396766;19;19919;-89
2022/12/03 12:15:53;;;;;;;;;;;;;;;9.79;80.65;101514.03;7393462;19;19923;-88
2022/12/03 12:18:24;;;;;;;;;;;;;;;9.78;80.28;101511.53;7394486;19;19918;-89
2022/12/03 12:20:52;;;;;;;;;;;;;;;9.76;80.53;101508.19;7396845;19;20457;-89
2022/12/03 12:23:20;;;;;;;;;;;;;;;9.80;80.50;101504.38;7393227;19;20278;-88
2022/12/03 12:25:51;;;;;;;;;;;;;;;9.80;80.72;101499.91;7390993;19;19911;-90
2022/12/03 12:28:20;;;;;;;;;;;;;;;9.83;79.53;101496.22;7392520;19;19938;-89
2022/12/03 12:30:47;;;;;;;;;;;;;;;9.81;78.82;101492.88;7390521;19;19935;-89
2022/12/03 12:33:19;;;;;;;;;;;;;;;9.77;79.47;101500.19;7392036;19;19931;-88
2022/12/03 12:35:47;;;;;;;;;;;;;;;9.75;80.22;101490.78;7395093;19;19944;-89
2022/12/03 12:38:16;;;;;;;;;;;;;;;9.77;79.08;101492.31;7396168;19;19918;-88
2022/12/03 12:40:45;;;;;;;;;;;;;;;9.80;78.69;101489.41;7394576;19;19927;-88
2022/12/03 12:43:18;;;;;;;;;;;;;;;9.77;78.44;101480.97;7392799;19;19929;-89
2022/12/03 12:45:51;;;;;;;;;;;;;;;9.77;78.88;101492.31;7389678;19;21186;-90
2022/12/03 12:48:21;;;;;;;;;;;;;;;9.78;77.60;101480.00;7391646;19;19926;-89
2022/12/03 12:50:52;;;;;;;;;;;;;;;9.79;78.00;101474.63;7388499;19;19946;-88
2022/12/03 12:53:23;;;;;;;;;;;;;;;9.81;77.91;101477.09;7389651;19;19931;-88
2022/12/03 12:56:25;;;;;;;;;;;;;;;9.74;77.14;101474.19;7388384;19;19926;-87
2022/12/03 12:58:53;;;;;;;;;;;;;;;9.75;76.97;101469.78;7385530;19;19922;-87
2022/12/03 13:01:23;;;;;;;;;;;;;;;9.72;76.35;101470.00;7383630;19;19910;-88
2022/12/03 13:03:51;;;;;;;;;;;;;;;9.71;76.70;101484.09;7380846;19;19942;-88
2022/12/03 13:06:24;;;;;;;;;;;;;;;9.68;76.52;101468.63;7382879;19;20281;-87
2022/12/03 13:08:51;;;;;;;;;;;;;;;9.66;76.54;101467.91;7383380;19;19926;-88
2022/12/03 13:11:19;;;;;;;;;;;;;;;9.66;77.30;101474.00;7382058;19;20029;-90
2022/12/03 13:13:46;;;;;;;;;;;;;;;9.72;76.58;101473.47;7389614;19;20262;-89
2022/12/03 13:16:16;;;;;;;;;;;;;;;9.72;76.59;101473.47;7388938;19;19923;-89
2022/12/03 13:18:45;;;;;;;;;;;;;;;9.73;77.41;101461.16;7383123;19;19927;-87
2022/12/03 13:21:13;;;;;;;;;;;;;;;9.81;77.90;101474.47;7378721;19;20034;-88
2022/12/03 13:23:40;;;;;;;;;;;;;;;9.80;76.23;101464.94;7378808;19;19915;-89
2022/12/03 13:26:11;;;;;;;;;;;;;;;9.83;76.14;101455.00;7377567;19;20365;-88
2022/12/03 13:29:00;;;;;;;;;;;;;;;9.86;75.55;101453.88;7379280;19;20394;-88
2022/12/03 13:31:32;;;;;;;;;;;;;;;9.85;76.33;101453.03;7380725;19;19919;-87
2022/12/03 13:34:13;;;;;;;;;;;;;;;9.88;75.70;101447.53;7382042;19;19927;-88
2022/12/03 13:36:41;;;;;;;;;;;;;;;9.84;76.08;101448.78;7382657;19;20276;-88
2022/12/03 13:39:12;;;;;;;;;;;;;;;9.92;74.95;101442.00;7386959;19;20241;-89
2022/12/03 13:47:29;;;;;;;;;;;;;;;9.95;73.06;101444.38;7383001;19;19931;-87
2022/12/03 13:49:57;;;;;;;;;;;;;;;9.88;72.70;101429.16;7381466;19;19922;-88
2022/12/03 13:52:25;;;;;;;;;;;;;;;9.86;73.79;101430.22;7384937;19;19922;-90
2022/12/03 13:54:57;;;;;;;;;;;;;;;9.80;71.38;101430.78;7385130;19;19974;-87
2022/12/03 14:00:46;;;;;;;;;;;;;;;9.75;70.73;101420.66;7388601;19;20109;-88
2022/12/03 14:03:13;;;;;;;;;;;;;;;9.66;69.92;101420.59;7384664;19;19986;-88
2022/12/03 14:05:40;;;;;;;;;;;;;;;9.67;70.58;101417.84;7388314;19;20274;-87
2022/12/03 14:08:08;;;;;;;;;;;;;;;9.68;70.93;101418.69;7386332;19;19922;-87
2022/12/03 14:10:35;;;;;;;;;;;;;;;9.67;70.51;101409.16;7385650;19;19922;-87
2022/12/03 14:13:04;;;;;;;;;;;;;;;9.66;71.00;101413.56;7383878;19;19927;-87
2022/12/03 14:15:34;;;;;;;;;;;;;;;9.68;69.52;101406.41;7386340;19;20349;-88
2022/12/03 14:18:01;;;;;;;;;;;;;;;9.71;69.51;101413.16;7386802;19;20851;-88
2022/12/03 14:20:29;;;;;;;;;;;;;;;9.72;69.32;101418.28;7388678;19;19927;-88
2022/12/03 14:22:57;;;;;;;;;;;;;;;9.72;69.11;101425.34;7389960;19;19948;-90
2022/12/03 14:25:25;;;;;;;;;;;;;;;9.67;69.22;101409.97;7390266;19;19947;-87
2022/12/03 14:27:52;;;;;;;;;;;;;;;9.66;68.92;101412.72;7391186;19;19915;-86
2022/12/03 14:30:20;;;;;;;;;;;;;;;9.59;69.15;101403.72;7387967;19;21157;-88
2022/12/03 14:32:47;;;;;;;;;;;;;;;9.58;69.45;101409.94;7386781;19;19995;-87
2022/12/03 14:35:14;;;;;;;;;;;;;;;9.59;69.47;101412.44;7382417;19;19926;-88
2022/12/03 14:37:41;;;;;;;;;;;;;;;9.54;69.51;101406.75;7383690;19;19915;-88
2022/12/03 14:40:09;;;;;;;;;;;;;;;9.51;69.93;101411.41;7386282;19;19978;-88
2022/12/03 14:42:46;;;;;;;;;;;;;;;9.48;70.44;101407.28;7382012;19;19919;-87
2022/12/03 14:45:16;;;;;;;;;;;;;;;9.49;70.66;101413.38;7382724;19;20351;-88